Bookmark and Share
Track history (hours):
 

Pride Of Hull

Operator: P&O Ferries

Last reported at 2011-Dec-07 13:33 UTC. Time now 2014-Apr-24 00:06 UTC.
Position N 51°57' E 004°08'.
Warning: this ship's position is years out of date!

Length 214 m; draft 6.1 m.

Type: Ship. MMSI: 235249000.

NotesDate/timePositionNaut miles runAvg speedWind from/ knotsBaromVisibWave heightAir tempDewpointWater temp
2011-Dec-07 13:33N 51°57' E 004°08'0 0.0
2011-Dec-07 13:03N 51°57' E 004°08'0 0.0
2011-Dec-07 12:23N 51°57' E 004°08'0 0.0
2011-Dec-07 12:02N 51°57' E 004°08'0 0.0
2011-Dec-07 11:32N 51°57' E 004°08'0 0.0
2011-Dec-07 11:02N 51°57' E 004°08'0 0.0
2011-Dec-07 10:28N 51°57' E 004°08'0 0.0
2011-Dec-07 10:00N 51°57' E 004°08'0 0.0
2011-Dec-07 08:58N 51°57' E 004°08'0 0.0
2011-Dec-07 08:04N 51°57' E 004°08'2 3.2
2011-Dec-07 07:34N 51°58' E 004°07'914.8
2011-Dec-07 06:58N 52°01' E 003°53'1019.0
2011-Dec-07 06:28N 52°06' E 003°40'6819.4
2011-Dec-07 02:57N 52°54' E 002°21'918.6
2011-Dec-07 02:27N 52°59' E 002°08'818.9
2011-Dec-07 02:03N 53°02' E 001°57'918.7
2011-Dec-07 01:33N 53°06' E 001°42'918.5
2011-Dec-07 01:03N 53°10' E 001°29'1018.4
2011-Dec-07 00:31N 53°14' E 001°14'918.1
2011-Dec-07 00:01N 53°19' E 001°01'3417.4
2011-Dec-06 22:03N 53°33' E 000°09'816.0
2011-Dec-06 21:33N 53°36' W 000°04'510.9
2011-Dec-06 21:03N 53°39' W 000°12'612.1
2011-Dec-06 20:33N 53°44' W 000°17'0 0.3
2011-Dec-06 20:03N 53°44' W 000°17'0 0.0
2011-Dec-06 19:32N 53°44' W 000°17'0 0.0
2011-Dec-06 17:01N 53°44' W 000°17'0 0.0
2011-Dec-06 14:57N 53°44' W 000°17'0 0.0
2011-Dec-06 13:31N 53°44' W 000°17'0 0.0
2011-Dec-06 12:03N 53°44' W 000°17'0 0.0
2011-Dec-06 11:36N 53°44' W 000°17'0 0.0
2011-Dec-06 11:02N 53°44' W 000°17'0 0.0
2011-Dec-06 10:32N 53°44' W 000°17'0 0.0
2011-Dec-06 10:01N 53°44' W 000°17'0 0.0
2011-Dec-06 09:31N 53°44' W 000°17'0 0.0
2011-Dec-06 09:01N 53°44' W 000°17'0 0.0
2011-Dec-06 08:31N 53°44' W 000°17'0 0.5
2011-Dec-06 08:04N 53°44' W 000°17'4 8.6
2011-Dec-06 07:33N 53°41' W 000°13'510.8
2011-Dec-06 07:03N 53°37' W 000°06'714.5
2011-Dec-06 06:33N 53°34' E 000°05'3517.5
2011-Dec-06 04:31N 53°20' E 000°60'817.6
2011-Dec-06 04:03N 53°15' E 001°11'917.3
2011-Dec-06 03:33N 53°10' E 001°22'917.4
2011-Dec-06 03:03N 53°05' E 001°34'917.6
2011-Dec-06 02:33N 52°60' E 001°46'918.0
2011-Dec-06 02:03N 52°55' E 001°58'918.4
2011-Dec-06 01:33N 52°48' E 002°09'1018.8
2011-Dec-06 01:02N 52°41' E 002°21'4718.1
2011-Dec-05 22:27N 52°16' E 003°25'717.5
2011-Dec-05 22:03N 52°11' E 003°34'917.0
2011-Dec-05 21:33N 52°07' E 003°45'816.8
2011-Dec-05 21:03N 52°03' E 003°57'815.4
2011-Dec-05 20:34N 51°58' E 004°07'2 2.6
2011-Dec-05 19:58N 51°57' E 004°08'0 0.0
2011-Dec-05 18:58N 51°57' E 004°08'0 0.0
2011-Dec-05 14:32N 51°57' E 004°08'0 0.0
2011-Dec-05 13:55N 51°57' E 004°08'0 0.0
2011-Dec-05 13:28N 51°57' E 004°08'0 0.0
2011-Dec-05 12:58N 51°57' E 004°08'0 0.0
2011-Dec-05 10:33N 51°57' E 004°08'0 0.0
2011-Dec-05 09:23N 51°57' E 004°08'0 0.0
2011-Dec-05 09:02N 51°57' E 004°08'0 0.0
2011-Dec-05 08:26N 51°57' E 004°08'0 0.0
2011-Dec-05 07:33N 51°57' E 004°08'2 3.0
2011-Dec-05 07:03N 51°58' E 004°07'613.0
2011-Dec-05 06:34N 52°01' E 003°57'815.4
2011-Dec-05 06:04N 52°04' E 003°46'715.4
2011-Dec-05 05:37N 52°08' E 003°37'5618.4
2011-Dec-05 02:33N 52°38' E 002°20'1020.5
2011-Dec-05 02:03N 52°44' E 002°05'1020.6
2011-Dec-05 01:34N 52°49' E 001°50'1020.4
2011-Dec-05 01:03N 52°54' E 001°37'1020.5
2011-Dec-05 00:34N 53°02' E 001°26'1020.1
2011-Dec-05 00:03N 53°10' E 001°15'1019.9
2011-Dec-04 23:33N 53°18' E 001°04'3219.5
2011-Dec-04 21:53N 53°32' E 000°16'617.4
2011-Dec-04 21:34N 53°34' E 000°06'815.6
2011-Dec-04 21:04N 53°37' W 000°06'611.4
2011-Dec-04 20:33N 53°41' W 000°13'4 8.3
2011-Dec-04 20:01N 53°44' W 000°17'0 0.0
2011-Dec-04 19:31N 53°44' W 000°17'0 0.0
2011-Dec-04 19:01N 53°44' W 000°17'0 0.0
2011-Dec-04 18:31N 53°44' W 000°17'0 0.0
2011-Dec-04 18:03N 53°44' W 000°17'0 0.0
2011-Dec-04 17:33N 53°44' W 000°17'0 0.0
2011-Dec-04 17:03N 53°44' W 000°17'0 0.0
2011-Dec-04 16:33N 53°44' W 000°17'0 0.0
2011-Dec-04 16:03N 53°44' W 000°17'0 0.0
2011-Dec-04 15:32N 53°44' W 000°17'0 0.0
2011-Dec-04 15:02N 53°44' W 000°17'0 0.0
2011-Dec-04 14:32N 53°44' W 000°17'0 0.0
2011-Dec-04 14:02N 53°44' W 000°17'0 0.0
2011-Dec-04 13:32N 53°44' W 000°17'0 0.0
2011-Dec-04 13:01N 53°44' W 000°17'0 0.0
2011-Dec-04 12:31N 53°44' W 000°17'0 0.0
2011-Dec-04 12:01N 53°44' W 000°17'0 0.0
2011-Dec-04 11:34N 53°44' W 000°17'0 0.0
2011-Dec-04 11:03N 53°44' W 000°17'0 0.0
2011-Dec-04 10:33N 53°44' W 000°17'0 0.0
2011-Dec-04 10:03N 53°44' W 000°17'0 0.0
2011-Dec-04 09:33N 53°44' W 000°17'0 0.0
2011-Dec-04 09:03N 53°44' W 000°17'0 0.0
2011-Dec-04 08:32N 53°44' W 000°17'0 0.0
2011-Dec-04 08:02N 53°44' W 000°17'0 0.3
2011-Dec-04 07:33N 53°44' W 000°17'4 8.5
2011-Dec-04 07:03N 53°41' W 000°13'510.4
2011-Dec-04 06:33N 53°37' W 000°06'714.1
2011-Dec-04 06:04N 53°35' E 000°04'714.9
2011-Dec-04 05:36N 53°33' E 000°16'3315.8
2011-Dec-04 03:31N 53°19' E 001°05'715.5
2011-Dec-04 03:04N 53°15' E 001°16'815.0
2011-Dec-04 02:34N 53°12' E 001°26'714.8
2011-Dec-04 02:04N 53°08' E 001°37'414.7
2011-Dec-04 01:47N 53°06' E 001°43'1115.1
2011-Dec-04 01:04N 53°01' E 001°60'917.6
2011-Dec-04 00:33N 52°58' E 002°13'5618.5
2011-Dec-03 21:32N 52°20' E 003°21'918.5
2011-Dec-03 21:04N 52°14' E 003°31'918.3
2011-Dec-03 20:33N 52°08' E 003°43'917.8
2011-Dec-03 20:04N 52°04' E 003°55'816.9
2011-Dec-03 19:33N 51°58' E 004°06'82159.2
2011-Dec-03 19:02N 52°41' E 002°11'2 3.2
2011-Dec-03 18:31N 52°42' E 002°09'1 3.0
2011-Dec-03 18:03N 52°43' E 002°07'1 2.6
2011-Dec-03 17:33N 52°44' E 002°05'1 2.5
2011-Dec-03 17:03N 52°44' E 002°03'1 2.4
2011-Dec-03 16:33N 52°45' E 002°01'91179.2
2011-Dec-03 16:02N 51°57' E 004°08'94188.9
2011-Dec-03 15:33N 52°46' E 001°58'1 2.3
2011-Dec-03 15:04N 52°47' E 001°56'1 2.3
2011-Dec-03 14:33N 52°47' E 001°55'1 2.3
2011-Dec-03 14:03N 52°48' E 001°53'1 2.3
2011-Dec-03 13:33N 52°48' E 001°51'1 2.2
2011-Dec-03 13:03N 52°49' E 001°50'1 2.3
2011-Dec-03 12:33N 52°50' E 001°48'1 2.2
2011-Dec-03 12:03N 52°50' E 001°47'1 2.2
2011-Dec-03 11:35N 52°51' E 001°45'102194.5
2011-Dec-03 11:03N 51°57' E 004°08'0 0.0
2011-Dec-03 10:33N 51°57' E 004°08'106213.2
2011-Dec-03 10:03N 52°53' E 001°41'1 2.2
2011-Dec-03 09:33N 52°54' E 001°39'1 2.2
2011-Dec-03 09:03N 52°55' E 001°38'1 2.4
2011-Dec-03 08:33N 52°55' E 001°37'1 2.8
2011-Dec-03 08:03N 52°57' E 001°35'110223.2
2011-Dec-03 07:33N 51°58' E 004°08'612.0
2011-Dec-03 07:03N 52°00' E 003°59'816.3
2011-Dec-03 06:33N 52°04' E 003°47'101199.1
2011-Dec-03 06:03N 53°00' E 001°30'1 2.9
2011-Dec-03 05:36N 53°01' E 001°29'2 3.0
2011-Dec-03 05:04N 53°02' E 001°27'2 3.0
2011-Dec-03 04:33N 53°04' E 001°25'2 3.5
2011-Dec-03 04:03N 53°05' E 001°23'2 3.6
2011-Dec-03 03:33N 53°06' E 001°21'2 3.7
2011-Dec-03 03:03N 53°08' E 001°19'2 4.3
2011-Dec-03 02:33N 53°09' E 001°17'2 4.8
2011-Dec-03 02:03N 53°11' E 001°14'2 3.9
2011-Dec-03 01:33N 53°12' E 001°12'2 4.6
2011-Dec-03 01:03N 53°14' E 001°09'3 5.5
2011-Dec-03 00:33N 53°16' E 001°06'3 5.0
2011-Dec-03 00:03N 53°18' E 001°03'2616.0
2011-Dec-02 22:26N 53°31' E 000°26'719.0
2011-Dec-02 22:03N 53°33' E 000°14'1615.8
2011-Dec-02 21:03N 53°38' W 000°11'612.7
2011-Dec-02 20:33N 53°44' W 000°16'1 1.5
2011-Dec-02 20:01N 53°44' W 000°17'0 0.0
2011-Dec-02 19:31N 53°44' W 000°17'0 0.0
2011-Dec-02 19:01N 53°44' W 000°17'0 0.0
2011-Dec-02 18:31N 53°44' W 000°17'0 0.0
2011-Dec-02 18:01N 53°44' W 000°17'0 0.0
2011-Dec-02 17:33N 53°44' W 000°17'0 0.0
2011-Dec-02 17:03N 53°44' W 000°17'0 0.0
2011-Dec-02 16:33N 53°44' W 000°17'0 0.0
2011-Dec-02 16:03N 53°44' W 000°17'0 0.0
2011-Dec-02 15:32N 53°44' W 000°17'0 0.0
2011-Dec-02 15:02N 53°44' W 000°17'0 0.0
2011-Dec-02 14:32N 53°44' W 000°17'0 0.0
2011-Dec-02 14:02N 53°44' W 000°17'0 0.0
2011-Dec-02 13:32N 53°44' W 000°17'0 0.0
2011-Dec-02 13:01N 53°44' W 000°17'0 0.0
2011-Dec-02 12:31N 53°44' W 000°17'0 0.0
2011-Dec-02 12:01N 53°44' W 000°17'0 0.0
2011-Dec-02 11:34N 53°44' W 000°17'0 0.0
2011-Dec-02 11:01N 53°44' W 000°17'0 0.0
2011-Dec-02 10:33N 53°44' W 000°17'0 0.0
2011-Dec-02 10:03N 53°44' W 000°17'0 0.0
2011-Dec-02 09:33N 53°44' W 000°17'0 0.0
2011-Dec-02 09:03N 53°44' W 000°17'0 0.0
2011-Dec-02 08:32N 53°44' W 000°17'0 0.0
2011-Dec-02 08:02N 53°44' W 000°17'0 0.0
2011-Dec-02 07:32N 53°44' W 000°17'0 0.2
2011-Dec-02 07:03N 53°44' W 000°17'5 9.1
2011-Dec-02 06:33N 53°40' W 000°13'611.0
2011-Dec-02 06:03N 53°37' W 000°06'716.2
2011-Dec-02 05:36N 53°34' E 000°06'4480.6
2011-Dec-02 05:04N 53°16' E 001°13'816.7
2011-Dec-02 04:33N 53°12' E 001°25'1110.5
2011-Dec-02 03:33N 53°06' E 001°40'510.6
2011-Dec-02 03:04N 53°04' E 001°48'510.5
2011-Dec-02 02:33N 53°02' E 001°56'612.1
2011-Dec-02 02:04N 52°60' E 002°06'815.3
2011-Dec-02 01:32N 52°56' E 002°17'6015.1
2011-Dec-01 21:34N 52°15' E 003°30'1019.0
2011-Dec-01 21:03N 52°09' E 003°41'918.7
2011-Dec-01 20:34N 52°03' E 003°54'917.8
2011-Dec-01 20:03N 51°58' E 004°06'2 4.3
2011-Dec-01 19:33N 51°57' E 004°08'0 0.0
2011-Dec-01 19:00N 51°57' E 004°08'0 0.0
2011-Dec-01 18:30N 51°57' E 004°08'0 0.0
2011-Dec-01 18:03N 51°57' E 004°08'0 0.0
2011-Dec-01 17:29N 51°57' E 004°08'0 0.0
2011-Dec-01 16:29N 51°57' E 004°08'0 0.0
2011-Dec-01 16:02N 51°57' E 004°08'0 0.0
2011-Dec-01 15:29N 51°57' E 004°08'0 0.0
2011-Dec-01 14:28N 51°57' E 004°08'0 0.0
2011-Dec-01 13:58N 51°57' E 004°08'0 0.0
2011-Dec-01 13:25N 51°57' E 004°08'0 0.0
2011-Dec-01 13:04N 51°57' E 004°08'0 0.0
2011-Dec-01 12:33N 51°57' E 004°08'0 0.0
2011-Dec-01 11:57N 51°57' E 004°08'0 0.0
2011-Dec-01 11:27N 51°57' E 004°08'0 0.0
2011-Dec-01 11:03N 51°57' E 004°08'0 0.0
2011-Dec-01 08:34N 51°57' E 004°08'5 9.4
2011-Dec-01 08:03N 51°60' E 004°02'1019.3
2011-Dec-01 07:33N 52°04' E 003°48'1018.7
2011-Dec-01 07:02N 52°09' E 003°34'5417.8
2011-Dec-01 04:00N 52°37' E 002°19'716.7
2011-Dec-01 03:33N 52°42' E 002°09'816.8
2011-Dec-01 03:03N 52°46' E 001°57'917.3
2011-Dec-01 02:34N 52°50' E 001°45'816.8
2011-Dec-01 02:04N 52°56' E 001°35'917.4
2011-Dec-01 01:34N 53°03' E 001°25'917.7
2011-Dec-01 01:04N 53°09' E 001°15'917.7
2011-Dec-01 00:34N 53°16' E 001°05'2717.8
2011-Nov-30 23:03N 53°30' E 000°28'917.6
2011-Nov-30 22:33N 53°33' E 000°13'918.4
2011-Nov-30 22:03N 53°36' W 000°01'815.6
2011-Nov-30 21:34N 53°40' W 000°12'510.4
2011-Nov-30 21:03N 53°44' W 000°17'0 0.1
2011-Nov-30 20:32N 53°44' W 000°17'0 0.0
2011-Nov-30 20:02N 53°44' W 000°17'0 0.0
2011-Nov-30 19:32N 53°44' W 000°17'0 0.0
2011-Nov-30 19:01N 53°44' W 000°17'0 0.0
2011-Nov-30 18:31N 53°44' W 000°17'0 0.0
2011-Nov-30 18:01N 53°44' W 000°17'0 0.0
2011-Nov-30 17:31N 53°44' W 000°17'0 0.0
2011-Nov-30 17:01N 53°44' W 000°17'0 0.0
2011-Nov-30 16:33N 53°44' W 000°17'0 0.0
2011-Nov-30 16:03N 53°44' W 000°17'0 0.0
2011-Nov-30 15:33N 53°44' W 000°17'0 0.0
2011-Nov-30 15:03N 53°44' W 000°17'0 0.0
2011-Nov-30 14:32N 53°44' W 000°17'0 0.0
2011-Nov-30 14:02N 53°44' W 000°17'0 0.0
2011-Nov-30 13:32N 53°44' W 000°17'0 0.0
2011-Nov-30 13:02N 53°44' W 000°17'0 0.0
2011-Nov-30 12:32N 53°44' W 000°17'0 0.0
2011-Nov-30 12:01N 53°44' W 000°17'0 0.0
2011-Nov-30 11:34N 53°44' W 000°17'0 0.0
2011-Nov-30 11:01N 53°44' W 000°17'0 0.0
2011-Nov-30 10:31N 53°44' W 000°17'0 0.0
2011-Nov-30 10:04N 53°44' W 000°17'0 0.0
2011-Nov-30 09:33N 53°44' W 000°17'0 0.0
2011-Nov-30 09:03N 53°44' W 000°17'0 0.0
2011-Nov-30 08:30N 53°44' W 000°17'0 0.0
2011-Nov-30 08:03N 53°44' W 000°17'0 0.2
2011-Nov-30 07:34N 53°44' W 000°17'612.6
2011-Nov-30 07:04N 53°39' W 000°12'714.7
2011-Nov-30 06:33N 53°35' W 000°01'1019.5
2011-Nov-30 06:04N 53°33' E 000°15'817.6
2011-Nov-30 05:35N 53°31' E 000°29'2119.0
2011-Nov-30 04:28N 53°20' E 000°60'820.1
2011-Nov-30 04:03N 53°14' E 001°10'1019.5
2011-Nov-30 03:33N 53°10' E 001°24'1020.0
2011-Nov-30 03:03N 53°03' E 001°37'1019.7
2011-Nov-30 02:33N 52°58' E 001°50'918.9
2011-Nov-30 02:03N 52°52' E 002°02'918.0
2011-Nov-30 01:33N 52°46' E 002°13'917.3
2011-Nov-30 01:03N 52°40' E 002°24'4317.1
2011-Nov-29 22:32N 52°16' E 003°23'816.8
2011-Nov-29 22:04N 52°12' E 003°34'816.9
2011-Nov-29 21:34N 52°07' E 003°45'917.7
2011-Nov-29 21:04N 52°02' E 003°57'714.8
2011-Nov-29 20:33N 51°58' E 004°07'1 2.6
2011-Nov-29 20:01N 51°57' E 004°08'0 0.0
2011-Nov-29 19:33N 51°57' E 004°08'0 0.0
2011-Nov-29 18:33N 51°57' E 004°08'0 0.0
2011-Nov-29 17:57N 51°57' E 004°08'0 0.0
2011-Nov-29 17:27N 51°57' E 004°08'0 0.0
2011-Nov-29 16:59N 51°57' E 004°08'0 0.0
2011-Nov-29 16:32N 51°57' E 004°08'0 0.0
2011-Nov-29 15:56N 51°57' E 004°08'0 0.0
2011-Nov-29 15:01N 51°57' E 004°08'0 0.0
2011-Nov-29 14:31N 51°57' E 004°08'0 0.0
2011-Nov-29 14:01N 51°57' E 004°08'0 0.0
2011-Nov-29 13:28N 51°57' E 004°08'0 0.0
2011-Nov-29 13:01N 51°57' E 004°08'0 0.0
2011-Nov-29 12:30N 51°57' E 004°08'0 0.0
2011-Nov-29 11:54N 51°57' E 004°08'0 0.0
2011-Nov-29 11:34N 51°57' E 004°08'0 0.0
2011-Nov-29 11:00N 51°57' E 004°08'0 0.0
2011-Nov-29 09:59N 51°57' E 004°08'0 0.0
2011-Nov-29 09:23N 51°57' E 004°08'0 0.0
2011-Nov-29 08:32N 51°57' E 004°08'0 0.0
2011-Nov-29 08:02N 51°57' E 004°08'2 4.2
2011-Nov-29 07:33N 51°58' E 004°06'714.9
2011-Nov-29 07:03N 52°01' E 003°55'918.7
2011-Nov-29 06:33N 52°06' E 003°42'5617.6
2011-Nov-29 03:23N 52°38' E 002°28'617.3
2011-Nov-29 03:03N 52°42' E 002°20'917.1
2011-Nov-29 02:33N 52°47' E 002°09'816.9
2011-Nov-29 02:03N 52°53' E 001°60'917.6
2011-Nov-29 01:33N 52°58' E 001°48'918.0
2011-Nov-29 01:03N 53°04' E 001°36'918.4
2011-Nov-29 00:33N 53°09' E 001°23'918.1
2011-Nov-29 00:03N 53°15' E 001°12'3517.4
2011-Nov-28 22:01N 53°32' E 000°20'918.7
2011-Nov-28 21:33N 53°34' E 000°06'918.8
2011-Nov-28 21:03N 53°38' W 000°08'714.1
2011-Nov-28 20:33N 53°44' W 000°15'1 2.3
2011-Nov-28 20:02N 53°44' W 000°17'0 0.0
2011-Nov-28 19:32N 53°44' W 000°17'0 0.0
2011-Nov-28 19:02N 53°44' W 000°17'0 0.0
2011-Nov-28 18:31N 53°44' W 000°17'0 0.0
2011-Nov-28 18:02N 53°44' W 000°17'0 0.0
2011-Nov-28 17:31N 53°44' W 000°17'0 0.0
2011-Nov-28 17:01N 53°44' W 000°17'0 0.0
2011-Nov-28 16:31N 53°44' W 000°17'0 0.0
2011-Nov-28 16:03N 53°44' W 000°17'0 0.0
2011-Nov-28 15:33N 53°44' W 000°17'0 0.0
2011-Nov-28 15:03N 53°44' W 000°17'0 0.0
2011-Nov-28 14:33N 53°44' W 000°17'0 0.0
2011-Nov-28 14:03N 53°44' W 000°17'0 0.0
2011-Nov-28 13:33N 53°44' W 000°17'0 0.0
2011-Nov-28 13:03N 53°44' W 000°17'0 0.0
2011-Nov-28 12:33N 53°44' W 000°17'0 0.0
2011-Nov-28 12:03N 53°44' W 000°17'0 0.0
2011-Nov-28 11:35N 53°44' W 000°17'0 0.0
2011-Nov-28 11:03N 53°44' W 000°17'0 0.0
2011-Nov-28 10:34N 53°44' W 000°17'0 0.0
2011-Nov-28 10:03N 53°44' W 000°17'0 0.0
2011-Nov-28 09:33N 53°44' W 000°17'0 0.0
2011-Nov-28 09:03N 53°44' W 000°17'0 0.0
2011-Nov-28 08:33N 53°44' W 000°17'0 0.0
2011-Nov-28 08:03N 53°44' W 000°17'0 0.0
2011-Nov-28 07:33N 53°44' W 000°17'0 0.0
2011-Nov-28 07:03N 53°44' W 000°17'5 9.1
2011-Nov-28 06:33N 53°40' W 000°13'815.1
2011-Nov-28 06:03N 53°36' W 000°03'817.9
2011-Nov-28 05:36N 53°33' E 000°10'916.1
2011-Nov-28 05:03N 53°32' E 000°25'815.1
2011-Nov-28 04:33N 53°29' E 000°36'814.9
2011-Nov-28 04:03N 53°24' E 000°46'816.2
2011-Nov-28 03:34N 53°21' E 000°58'816.9
2011-Nov-28 03:04N 53°15' E 001°08'917.7
2011-Nov-28 02:33N 53°08' E 001°18'918.7
2011-Nov-28 02:04N 53°01' E 001°28'1020.6
2011-Nov-28 01:34N 52°53' E 001°39'1019.0
2011-Nov-28 01:03N 52°48' E 001°53'918.7
2011-Nov-28 00:34N 52°44' E 002°06'917.8
2011-Nov-28 00:03N 52°40' E 002°19'5116.9
2011-Nov-27 21:03N 52°12' E 003°29'917.3
2011-Nov-27 20:34N 52°08' E 003°41'816.6
2011-Nov-27 20:03N 52°03' E 003°52'917.2
2011-Nov-27 19:33N 51°59' E 004°05'3 5.0
2011-Nov-27 18:57N 51°57' E 004°08'0 0.0
2011-Nov-27 18:27N 51°57' E 004°08'0 0.0
2011-Nov-27 17:57N 51°57' E 004°08'0 0.0
2011-Nov-27 17:33N 51°57' E 004°08'0 0.0
2011-Nov-27 16:57N 51°57' E 004°08'0 0.0
2011-Nov-27 16:33N 51°57' E 004°08'0 0.0
2011-Nov-27 16:02N 51°57' E 004°08'0 0.0
2011-Nov-27 15:29N 51°57' E 004°08'0 0.0
2011-Nov-27 15:02N 51°57' E 004°08'0 0.0
2011-Nov-27 14:31N 51°57' E 004°08'0 0.0
2011-Nov-27 14:01N 51°57' E 004°08'  

Dump ship's entire track history

sailing weather and tide predictions

Pride Of Hull — ZNNK8 — position and weather